Time;durP1;ratioP1;P1;durP2;ratioP2;P2;SDS_P1;SDS_P2;PMS_P1;PMS_P2;Temp;Humidity;BMP_temperature;BMP_pressure;BME280_temperature;BME280_humidity;BME280_pressure;Samples;Min_cycle;Max_cycle;Signal;HPM_P1;HPM_P2
2023/01/17 00:00:10;;;;;;;1.70;0.60;;;;;;;18.71;39.05;98322.38;4996074;28;20133;-69
2023/01/17 00:02:35;;;;;;;2.95;0.98;;;;;;;18.69;39.02;98324.38;4992853;28;20279;-71
2023/01/17 00:10:28;;;;;;;2.72;0.85;;;;;;;18.64;38.90;98334.69;4995716;28;21285;-68
2023/01/17 00:12:58;;;;;;;2.47;0.82;;;;;;;18.61;38.87;98335.06;4996135;28;20038;-72
2023/01/17 00:15:25;;;;;;;2.20;0.60;;;;;;;18.62;38.80;98337.50;4987890;28;20066;-68
2023/01/17 00:17:52;;;;;;;3.95;0.80;;;;;;;18.61;38.85;98349.06;4995019;28;20486;-66
2023/01/17 00:26:14;;;;;;;1.00;0.50;;;;;;;18.55;38.68;98364.81;4994771;28;20141;-68
2023/01/17 01:35:51;;;;;;;1.83;0.40;;;;;;;18.31;37.24;98457.28;4997506;28;20040;-66
2023/01/17 01:38:18;;;;;;;1.85;0.50;;;;;;;18.28;37.29;98459.47;4998164;28;20039;-69
2023/01/17 01:40:45;;;;;;;0.77;0.30;;;;;;;18.29;36.98;98469.84;4993065;28;20116;-72
2023/01/17 01:43:12;;;;;;;0.60;0.40;;;;;;;18.28;37.23;98472.66;4989397;28;20037;-69
2023/01/17 01:45:39;;;;;;;1.02;0.40;;;;;;;18.24;37.41;98477.44;4996539;28;20030;-72
2023/01/17 01:48:33;;;;;;;1.15;0.40;;;;;;;18.29;37.05;98492.72;4993610;28;20037;-72
2023/01/17 01:51:02;;;;;;;0.90;0.30;;;;;;;18.24;37.14;98481.91;4992629;28;20030;-73
2023/01/17 01:53:31;;;;;;;1.50;0.50;;;;;;;18.26;37.19;98493.91;4998654;28;20394;-68
2023/01/17 01:55:58;;;;;;;0.63;0.32;;;;;;;18.23;37.13;98502.19;4986626;28;20037;-67
2023/01/17 01:58:28;;;;;;;1.05;0.40;;;;;;;18.22;37.01;98502.38;4985561;28;20041;-69
2023/01/17 02:00:53;;;;;;;0.50;0.40;;;;;;;18.23;36.85;98509.25;4995577;28;20956;-69
2023/01/17 02:03:28;;;;;;;1.38;0.40;;;;;;;18.22;36.80;98519.00;4996486;28;20148;-69
2023/01/17 02:05:53;;;;;;;0.90;0.47;;;;;;;18.24;36.90;98516.19;4991331;28;20030;-68
2023/01/17 02:08:21;;;;;;;1.48;0.50;;;;;;;18.20;36.94;98507.00;4998892;28;20471;-69
2023/01/17 02:10:47;;;;;;;0.32;0.30;;;;;;;18.18;36.76;98511.63;4987891;28;20038;-70
2023/01/17 02:13:15;;;;;;;0.60;0.40;;;;;;;18.19;36.87;98513.28;4994045;28;20034;-70
2023/01/17 02:16:13;;;;;;;0.82;0.32;;;;;;;18.16;36.68;98519.72;4988994;28;20029;-69
2023/01/17 02:18:53;;;;;;;0.85;0.40;;;;;;;18.18;36.78;98532.72;4998883;28;20030;-69
2023/01/17 02:21:37;;;;;;;0.85;0.40;;;;;;;18.18;36.67;98538.81;4996909;28;20474;-69
2023/01/17 02:24:26;;;;;;;1.20;0.50;;;;;;;18.11;37.00;98530.81;4992326;28;20027;-71
2023/01/17 02:27:15;;;;;;;1.75;0.50;;;;;;;18.16;36.63;98545.28;4998414;28;20057;-68
2023/01/17 02:30:11;;;;;;;1.83;0.50;;;;;;;18.12;36.57;98550.09;4993806;28;20531;-67
2023/01/17 02:33:02;;;;;;;0.85;0.40;;;;;;;18.12;36.48;98553.53;4994311;28;20065;-69
2023/01/17 02:35:46;;;;;;;1.27;0.38;;;;;;;18.12;36.67;98566.72;4987101;28;20052;-70
2023/01/17 02:38:23;;;;;;;1.05;0.40;;;;;;;18.08;36.72;98557.53;4986384;28;20046;-68
2023/01/17 02:40:54;;;;;;;1.42;0.40;;;;;;;18.08;36.33;98535.63;4984952;28;20037;-71
2023/01/17 02:43:22;;;;;;;0.57;0.40;;;;;;;18.07;36.04;98528.72;4998112;28;20039;-69
2023/01/17 02:45:48;;;;;;;1.45;0.50;;;;;;;18.04;36.26;98500.06;4996714;28;20084;-70
2023/01/17 02:48:19;;;;;;;1.30;0.30;;;;;;;18.06;36.17;98522.63;4999564;28;20026;-76
2023/01/17 02:51:06;;;;;;;1.20;0.40;;;;;;;18.07;36.51;98533.97;4983552;28;20036;-69
2023/01/17 02:54:20;;;;;;;0.65;0.30;;;;;;;18.06;36.07;98535.00;4994138;28;20056;-70
2023/01/17 02:57:03;;;;;;;2.33;0.50;;;;;;;18.04;36.28;98542.25;4992410;28;20045;-72
2023/01/17 02:59:38;;;;;;;1.30;0.30;;;;;;;18.04;36.13;98548.34;4985139;28;20062;-70
2023/01/17 03:02:09;;;;;;;0.32;0.20;;;;;;;18.04;36.18;98560.69;4983818;28;20376;-69
2023/01/17 03:04:48;;;;;;;1.60;0.40;;;;;;;18.02;36.27;98557.44;4996665;28;20054;-69
2023/01/17 03:07:20;;;;;;;2.15;0.50;;;;;;;17.97;36.21;98557.97;4992235;28;20041;-68
2023/01/17 03:09:52;;;;;;;1.05;0.30;;;;;;;18.01;36.39;98571.59;4987445;28;20486;-68
2023/01/17 03:12:18;;;;;;;1.45;0.40;;;;;;;18.01;36.16;98574.22;4984634;28;20038;-72
2023/01/17 03:14:44;;;;;;;1.55;0.40;;;;;;;18.00;36.16;98572.59;5001714;28;20038;-68
2023/01/17 03:17:09;;;;;;;0.98;0.40;;;;;;;17.98;36.14;98575.41;4993380;28;20034;-73
2023/01/17 03:19:34;;;;;;;1.95;0.50;;;;;;;18.00;36.07;98572.59;4999874;28;20091;-69
2023/01/17 03:21:59;;;;;;;1.00;0.30;;;;;;;17.93;35.85;98567.25;4991961;28;20104;-70
2023/01/17 03:24:25;;;;;;;0.63;0.30;;;;;;;17.97;36.09;98567.69;4990858;28;20040;-67
2023/01/17 03:26:50;;;;;;;0.93;0.40;;;;;;;17.93;36.21;98568.03;4997548;28;20425;-72
2023/01/17 03:29:15;;;;;;;0.70;0.32;;;;;;;17.93;36.04;98564.59;4990281;28;20271;-71
2023/01/17 03:31:41;;;;;;;2.00;0.43;;;;;;;17.97;36.04;98572.97;4989716;28;20026;-76
2023/01/17 03:34:06;;;;;;;2.03;0.50;;;;;;;17.94;35.95;98574.97;4983253;28;20101;-69
2023/01/17 03:36:31;;;;;;;1.92;0.40;;;;;;;17.95;36.02;98584.50;4988556;28;20030;-69
2023/01/17 03:38:57;;;;;;;1.27;0.40;;;;;;;17.94;36.07;98574.97;4997210;28;20077;-74
2023/01/17 03:41:22;;;;;;;2.23;0.60;;;;;;;17.92;36.13;98576.94;4995154;28;20034;-69
2023/01/17 03:43:48;;;;;;;1.53;0.40;;;;;;;17.92;36.08;98576.13;4982069;28;20290;-70
2023/01/17 03:46:20;;;;;;;0.50;0.30;;;;;;;17.88;36.04;98578.31;4988728;28;20299;-70
2023/01/17 03:48:45;;;;;;;1.17;0.30;;;;;;;17.90;35.86;98584.22;4992032;28;20480;-74
2023/01/17 03:51:10;;;;;;;1.80;0.40;;;;;;;17.87;35.83;98584.53;4990339;28;20034;-68
2023/01/17 03:53:35;;;;;;;1.40;0.40;;;;;;;17.90;35.85;98584.22;4992545;28;20038;-71
2023/01/17 03:56:01;;;;;;;0.57;0.30;;;;;;;17.88;35.52;98578.31;4992113;28;20050;-68
2023/01/17 03:58:26;;;;;;;0.80;0.40;;;;;;;17.89;35.64;98571.22;4987867;28;20038;-68
2023/01/17 04:00:51;;;;;;;1.33;0.40;;;;;;;17.90;35.62;98586.03;4988120;28;20385;-68
2023/01/17 04:03:17;;;;;;;1.83;0.40;;;;;;;17.89;35.75;98576.47;4984665;28;20280;-71
2023/01/17 04:05:42;;;;;;;0.85;0.30;;;;;;;17.82;35.83;98568.44;4992064;28;20482;-71
2023/01/17 04:08:07;;;;;;;1.00;0.40;;;;;;;17.86;35.94;98574.16;4990125;28;20140;-69
2023/01/17 04:10:32;;;;;;;1.23;0.45;;;;;;;17.81;35.81;98572.06;4998684;28;20588;-68
2023/01/17 04:12:58;;;;;;;0.85;0.40;;;;;;;17.86;35.66;98582.06;4983397;28;20121;-69
2023/01/17 04:15:23;;;;;;;0.57;0.43;;;;;;;17.81;35.69;98585.25;4990202;28;20165;-73
2023/01/17 04:17:48;;;;;;;1.35;0.50;;;;;;;17.85;35.61;98583.06;4998518;28;20354;-69
2023/01/17 04:20:28;;;;;;;0.65;0.40;;;;;;;17.80;35.86;98583.63;4994442;28;20448;-72
2023/01/17 04:22:53;;;;;;;1.08;0.40;;;;;;;17.80;35.52;98580.97;5001919;28;20086;-69
2023/01/17 04:25:18;;;;;;;0.80;0.30;;;;;;;17.83;35.82;98578.00;5001417;28;20069;-68
2023/01/17 04:27:44;;;;;;;1.65;0.50;;;;;;;17.79;35.53;98581.16;4991604;28;20026;-68
2023/01/17 04:30:10;;;;;;;2.13;0.40;;;;;;;17.77;35.54;98574.25;4995283;28;20397;-71
2023/01/17 04:32:35;;;;;;;1.98;0.50;;;;;;;17.79;35.58;98575.88;4991004;28;20390;-70
2023/01/17 04:35:00;;;;;;;1.80;0.50;;;;;;;17.80;35.53;98573.06;4998305;28;20038;-68
2023/01/17 04:37:26;;;;;;;0.93;0.32;;;;;;;17.79;35.58;98581.97;4995411;28;20033;-73
2023/01/17 04:39:51;;;;;;;2.08;0.60;;;;;;;17.77;35.29;98573.44;4997189;28;20050;-70
2023/01/17 04:42:16;;;;;;;1.15;0.40;;;;;;;17.79;35.55;98575.88;4992933;28;20854;-76
2023/01/17 04:44:41;;;;;;;0.95;0.45;;;;;;;17.71;35.30;98566.22;4993567;28;20049;-69
2023/01/17 04:47:07;;;;;;;0.90;0.45;;;;;;;17.73;35.53;98575.56;5000646;28;20570;-73
2023/01/17 04:49:32;;;;;;;2.67;0.75;;;;;;;17.76;35.25;98585.75;4985911;28;20034;-73
2023/01/17 04:51:57;;;;;;;1.65;0.40;;;;;;;17.76;35.50;98587.59;4987071;28;20880;-69
2023/01/17 04:54:22;;;;;;;1.17;0.40;;;;;;;17.74;35.33;98593.03;4988446;28;20163;-73
2023/01/17 04:56:48;;;;;;;1.35;0.60;;;;;;;17.68;35.45;98585.84;4990257;28;20095;-69
2023/01/17 04:59:13;;;;;;;2.63;0.68;;;;;;;17.74;35.52;98593.03;4989198;28;20034;-67
2023/01/17 05:01:38;;;;;;;1.33;0.50;;;;;;;17.72;35.43;98589.75;4993957;28;20855;-69
2023/01/17 05:04:04;;;;;;;1.73;0.52;;;;;;;17.70;35.40;98589.09;4997720;28;20264;-68
2023/01/17 05:06:29;;;;;;;1.67;0.70;;;;;;;17.68;35.19;98580.56;4992290;28;20057;-74
2023/01/17 05:08:54;;;;;;;1.63;0.80;;;;;;;17.70;36.38;98590.94;5000560;28;20041;-69
2023/01/17 05:11:19;;;;;;;1.77;0.68;;;;;;;17.73;37.26;98594.03;4991044;28;20403;-68
2023/01/17 05:13:47;;;;;;;3.10;0.80;;;;;;;17.73;37.48;98587.94;4993920;28;20038;-70
2023/01/17 05:16:12;;;;;;;2.05;0.80;;;;;;;17.68;37.73;98580.56;4996159;28;20033;-69
2023/01/17 05:18:37;;;;;;;1.83;0.80;;;;;;;17.72;38.04;98589.75;4986598;28;20033;-68
2023/01/17 05:21:03;;;;;;;1.98;0.90;;;;;;;17.68;38.45;98591.09;5001192;28;20044;-75
2023/01/17 05:23:29;;;;;;;3.13;1.17;;;;;;;17.63;38.10;98582.91;4989363;28;20380;-72
2023/01/17 05:25:54;;;;;;;3.08;0.80;;;;;;;17.67;38.53;98583.38;4992089;28;20041;-69
2023/01/17 05:28:19;;;;;;;2.63;1.02;;;;;;;17.67;39.06;98591.28;4995551;28;20725;-69
2023/01/17 05:30:45;;;;;;;2.30;0.90;;;;;;;17.68;39.65;98590.28;4994692;28;20124;-70
2023/01/17 05:33:10;;;;;;;2.55;0.60;;;;;;;17.68;39.20;98587.66;4985022;28;20279;-71
2023/01/17 05:35:35;;;;;;;1.55;0.68;;;;;;;17.74;38.81;98600.94;4988434;28;20407;-74
2023/01/17 05:38:01;;;;;;;2.25;0.68;;;;;;;17.76;38.61;98593.66;4996394;28;20048;-69
2023/01/17 05:40:29;;;;;;;1.63;0.68;;;;;;;17.80;38.81;98604.69;4999010;28;20119;-69
2023/01/17 05:42:56;;;;;;;1.10;0.50;;;;;;;17.86;38.78;98600.53;4999714;28;20075;-69
2023/01/17 05:45:24;;;;;;;1.02;0.60;;;;;;;17.93;38.77;98618.13;4995477;28;20069;-74
2023/01/17 05:47:51;;;;;;;1.65;0.90;;;;;;;17.97;38.64;98623.03;4989329;28;20038;-75
2023/01/17 05:50:22;;;;;;;1.40;0.50;;;;;;;18.02;38.69;98632.03;4990504;28;20038;-73
2023/01/17 05:52:50;;;;;;;2.88;0.60;;;;;;;18.08;38.80;98631.31;5002346;28;20041;-69
2023/01/17 05:55:15;;;;;;;1.15;0.50;;;;;;;18.09;38.78;98627.69;4997081;28;20038;-69
2023/01/17 05:57:41;;;;;;;1.48;0.60;;;;;;;18.13;38.94;98626.34;4987459;28;20037;-68
2023/01/17 06:00:07;;;;;;;2.15;0.80;;;;;;;18.19;38.66;98626.63;4988490;28;20046;-68
2023/01/17 06:02:32;;;;;;;2.42;1.08;;;;;;;18.21;39.00;98630.72;4987184;28;20027;-71
2023/01/17 06:04:57;;;;;;;1.97;0.70;;;;;;;18.23;38.77;98627.91;4993235;28;20129;-71
2023/01/17 06:07:22;;;;;;;1.73;0.60;;;;;;;18.21;38.97;98614.09;4989541;28;20765;-69
2023/01/17 06:09:48;;;;;;;2.75;0.60;;;;;;;18.27;38.94;98621.28;4984055;28;20026;-70
2023/01/17 06:12:13;;;;;;;1.95;0.70;;;;;;;18.23;38.78;98618.19;4997520;28;20034;-68
2023/01/17 06:14:38;;;;;;;1.38;0.70;;;;;;;18.25;38.99;98615.38;4996185;28;20037;-69
2023/01/17 06:17:04;;;;;;;1.47;0.57;;;;;;;18.26;38.80;98619.63;4988297;28;20030;-68
2023/01/17 06:19:29;;;;;;;1.17;0.65;;;;;;;18.31;38.92;98623.38;4986211;28;20370;-67
2023/01/17 06:21:54;;;;;;;2.83;0.90;;;;;;;18.31;39.11;98628.66;4995106;28;20042;-70
2023/01/17 06:24:20;;;;;;;2.50;0.77;;;;;;;18.30;39.09;98621.75;4989419;28;20034;-68
2023/01/17 06:26:45;;;;;;;2.17;0.80;;;;;;;18.30;38.88;98621.75;4988089;28;20410;-68
2023/01/17 06:29:11;;;;;;;3.03;0.80;;;;;;;18.33;39.15;98630.31;5002513;28;20038;-69
2023/01/17 06:31:36;;;;;;;2.42;0.80;;;;;;;18.34;39.00;98630.13;5000311;28;20552;-73
2023/01/17 06:34:02;;;;;;;2.83;0.85;;;;;;;18.31;39.05;98623.38;4993082;28;20038;-72
2023/01/17 06:36:28;;;;;;;3.38;0.90;;;;;;;18.36;39.43;98628.13;4995075;28;20041;-68
2023/01/17 06:38:53;;;;;;;1.65;0.70;;;;;;;18.36;39.32;98635.19;4988162;28;20376;-70
2023/01/17 06:41:19;;;;;;;2.97;0.88;;;;;;;18.36;39.21;98633.41;4990105;28;20085;-66
2023/01/17 06:43:44;;;;;;;3.03;0.70;;;;;;;18.37;39.19;98634.22;4994328;28;20034;-67
2023/01/17 06:46:09;;;;;;;5.25;0.90;;;;;;;18.40;39.41;98631.22;4991887;28;20364;-72
2023/01/17 06:48:34;;;;;;;4.10;0.85;;;;;;;18.39;39.29;98633.03;5002335;28;20030;-70
2023/01/17 06:51:00;;;;;;;4.90;1.17;;;;;;;18.39;39.31;98633.03;5001820;28;20030;-67
2023/01/17 06:53:25;;;;;;;3.83;1.10;;;;;;;18.39;39.37;98638.31;5001658;28;20048;-67
2023/01/17 06:55:51;;;;;;;3.35;0.82;;;;;;;18.42;39.28;98642.41;4999698;28;20029;-70
2023/01/17 06:58:16;;;;;;;2.22;0.77;;;;;;;18.41;39.32;98632.88;5001962;28;20053;-69
2023/01/17 07:00:42;;;;;;;3.78;1.00;;;;;;;18.41;39.49;98638.13;4998264;28;20045;-68
2023/01/17 07:03:20;;;;;;;2.55;0.80;;;;;;;18.42;39.41;98645.88;4995009;28;20030;-68
2023/01/17 07:05:47;;;;;;;3.17;0.98;;;;;;;18.43;39.34;98641.41;4982518;28;20034;-68
2023/01/17 07:08:12;;;;;;;2.67;0.95;;;;;;;18.41;39.56;98632.88;4996573;28;20478;-68
2023/01/17 07:10:37;;;;;;;2.97;0.98;;;;;;;18.42;39.44;98637.13;4991085;28;20057;-71
2023/01/17 07:13:02;;;;;;;2.47;0.98;;;;;;;18.39;39.49;98635.69;4988060;28;20112;-68
2023/01/17 07:15:28;;;;;;;3.10;0.90;;;;;;;18.40;39.60;98639.13;4987755;28;20041;-68
2023/01/17 07:17:53;;;;;;;3.95;0.90;;;;;;;18.40;39.63;98632.03;4982376;28;20038;-69
2023/01/17 07:20:18;;;;;;;3.28;0.90;;;;;;;18.40;39.69;98641.75;4982087;28;20149;-69
2023/01/17 07:22:44;;;;;;;2.38;0.82;;;;;;;18.41;39.73;98641.59;4993868;28;20044;-68
2023/01/17 07:25:10;;;;;;;3.35;0.90;;;;;;;18.44;39.62;98637.78;4986583;28;20030;-69
2023/01/17 07:27:35;;;;;;;3.20;0.90;;;;;;;18.43;39.88;98642.22;4982048;28;20115;-70
2023/01/17 07:30:00;;;;;;;2.45;0.90;;;;;;;18.52;39.61;98644.78;4981888;28;20034;-67
2023/01/17 07:32:28;;;;;;;3.58;1.15;;;;;;;18.52;39.86;98639.50;4994423;28;20037;-67
2023/01/17 07:34:56;;;;;;;3.30;1.10;;;;;;;18.51;39.82;98648.44;4991285;28;20062;-69
2023/01/17 07:37:21;;;;;;;4.18;1.33;;;;;;;18.52;39.99;98656.16;4989849;28;20077;-72
2023/01/17 07:39:47;;;;;;;3.03;1.20;;;;;;;18.49;40.22;98657.31;4994355;28;20054;-71
2023/01/17 07:42:12;;;;;;;4.65;1.17;;;;;;;18.45;40.45;98648.16;4982428;28;20098;-68
2023/01/17 07:44:39;;;;;;;4.00;1.27;;;;;;;18.44;40.11;98651.78;4984668;28;20037;-67
2023/01/17 07:47:05;;;;;;;2.70;1.25;;;;;;;18.45;40.38;98658.69;4984818;28;20083;-68
2023/01/17 07:49:30;;;;;;;4.93;1.40;;;;;;;18.46;40.78;98660.31;4983526;28;20113;-68
2023/01/17 07:51:55;;;;;;;3.08;1.20;;;;;;;18.46;40.51;98659.50;5000696;28;20874;-68
2023/01/17 07:54:21;;;;;;;3.25;1.10;;;;;;;18.45;40.81;98663.13;4989738;28;20081;-69
2023/01/17 07:56:46;;;;;;;4.82;1.20;;;;;;;18.45;40.55;98663.97;4993535;28;20042;-69
2023/01/17 07:59:12;;;;;;;4.10;1.25;;;;;;;18.44;40.73;98658.88;5005060;28;20498;-70
2023/01/17 08:01:37;;;;;;;4.05;1.20;;;;;;;18.43;41.07;98659.88;4997352;28;20118;-71
2023/01/17 08:04:02;;;;;;;4.82;1.27;;;;;;;18.46;41.55;98655.03;4997958;28;20046;-71
2023/01/17 08:06:28;;;;;;;5.72;1.15;;;;;;;18.50;41.25;98660.81;4989399;28;20042;-70
2023/01/17 08:08:57;;;;;;;3.45;1.15;;;;;;;18.51;41.48;98665.06;4998418;28;20041;-71
2023/01/17 08:11:23;;;;;;;3.35;1.27;;;;;;;18.51;41.46;98667.69;5004991;28;20029;-71
2023/01/17 08:13:49;;;;;;;4.10;1.20;;;;;;;18.48;41.40;98663.63;4985450;28;20038;-68
2023/01/17 08:16:14;;;;;;;3.25;1.10;;;;;;;18.47;41.67;98654.06;4991587;28;20036;-68
2023/01/17 08:18:40;;;;;;;4.97;1.40;;;;;;;18.49;41.49;98659.97;4997288;28;20038;-71
2023/01/17 08:21:15;;;;;;;3.65;1.38;;;;;;;18.54;41.38;98669.16;4987186;28;20057;-70
2023/01/17 08:23:41;;;;;;;3.95;1.42;;;;;;;18.55;41.47;98666.34;4992268;28;20045;-68
2023/01/17 08:26:06;;;;;;;3.75;1.40;;;;;;;18.54;41.13;98661.25;4996632;28;20038;-73
2023/01/17 08:28:32;;;;;;;3.60;1.60;;;;;;;18.55;41.32;98661.06;4997172;28;20129;-72
2023/01/17 08:30:57;;;;;;;6.43;1.63;;;;;;;18.58;41.45;98673.06;4997079;28;20030;-69
2023/01/17 08:33:22;;;;;;;4.75;1.50;;;;;;;18.53;41.51;98676.25;4996735;28;20045;-68
2023/01/17 08:35:54;;;;;;;4.53;1.60;;;;;;;18.57;41.06;98680.19;4994508;28;20030;-71
2023/01/17 08:38:22;;;;;;;4.82;1.58;;;;;;;18.46;41.31;98664.78;4999226;28;20988;-72
2023/01/17 08:40:50;;;;;;;3.40;1.30;;;;;;;18.54;41.51;98675.25;4991796;28;20542;-73
2023/01/17 08:43:15;;;;;;;4.10;1.40;;;;;;;18.61;41.51;98685.91;4994913;28;20836;-72
2023/01/17 08:45:44;;;;;;;5.43;1.73;;;;;;;18.53;41.58;98675.44;4996662;28;20029;-72
2023/01/17 08:48:09;;;;;;;9.43;3.50;;;;;;;18.62;41.35;98687.56;4999317;28;20034;-69
2023/01/17 08:50:35;;;;;;;4.15;1.50;;;;;;;18.60;41.40;98687.72;4991727;28;20881;-71
2023/01/17 08:53:00;;;;;;;4.47;1.55;;;;;;;18.64;41.57;98675.00;4991430;28;20057;-74
2023/01/17 08:55:26;;;;;;;3.23;1.60;;;;;;;18.65;41.69;98682.72;4994953;28;20041;-75
2023/01/17 08:57:51;;;;;;;4.40;1.55;;;;;;;18.71;41.97;98690.91;5000853;28;20329;-73
2023/01/17 09:00:17;;;;;;;4.43;1.95;;;;;;;18.70;42.10;98684.81;5000631;28;20034;-74
2023/01/17 09:02:42;;;;;;;5.10;1.80;;;;;;;18.65;42.20;98674.00;4995178;28;20057;-73
2023/01/17 09:05:08;;;;;;;5.40;1.65;;;;;;;18.72;42.23;98687.28;4984650;28;20066;-74
2023/01/17 09:07:33;;;;;;;5.95;1.60;;;;;;;18.72;42.14;98680.19;4988328;28;20125;-71
2023/01/17 09:09:59;;;;;;;5.53;1.60;;;;;;;18.73;41.99;98687.09;4994085;28;20402;-74
2023/01/17 09:12:24;;;;;;;5.35;1.70;;;;;;;18.73;42.01;98686.31;4987028;28;20519;-73
2023/01/17 09:14:49;;;;;;;3.58;1.80;;;;;;;18.76;42.06;98689.38;4990815;28;20112;-72
2023/01/17 09:17:15;;;;;;;5.53;1.88;;;;;;;18.76;41.96;98686.75;4993351;28;20113;-73
2023/01/17 09:19:44;;;;;;;5.78;1.75;;;;;;;18.77;42.08;98687.56;4983753;28;20062;-73
2023/01/17 09:22:10;;;;;;;5.53;1.83;;;;;;;18.76;41.78;98680.66;4996590;28;20038;-73
2023/01/17 09:24:35;;;;;;;7.22;2.00;;;;;;;18.71;41.93;98675.09;4986656;28;20141;-69
2023/01/17 09:27:00;;;;;;;4.60;1.40;;;;;;;18.79;41.83;98688.22;4996359;28;20128;-70
2023/01/17 09:29:26;;;;;;;2.75;1.15;;;;;;;18.92;41.78;98691.06;4990282;28;20026;-70
2023/01/17 09:31:51;;;;;;;4.53;1.40;;;;;;;19.00;41.44;98687.53;4984143;28;20044;-71
2023/01/17 09:34:17;;;;;;;3.67;1.13;;;;;;;19.14;41.14;98699.91;4990892;28;20368;-71
2023/01/17 09:36:43;;;;;;;2.72;1.00;;;;;;;19.19;41.27;98689.59;4999748;28;20038;-71
2023/01/17 09:39:09;;;;;;;4.90;1.05;;;;;;;19.27;41.03;98701.06;4995267;28;20081;-70
2023/01/17 09:41:45;;;;;;;8.43;1.65;;;;;;;19.29;40.96;98704.34;4989964;28;20113;-70
2023/01/17 09:44:24;;;;;;;6.47;1.95;;;;;;;19.23;40.11;98702.44;5002968;28;20113;-71
2023/01/17 09:46:54;;;;;;;6.85;1.90;;;;;;;19.14;40.40;98702.53;4991633;28;20046;-68
2023/01/17 09:49:55;;;;;;;7.00;1.90;;;;;;;19.14;40.88;98707.81;4990915;28;20093;-75
2023/01/17 09:52:23;;;;;;;4.45;1.65;;;;;;;19.06;41.21;98697.34;4979577;28;20053;-68
2023/01/17 09:54:49;;;;;;;5.25;1.60;;;;;;;18.99;41.44;98701.72;4986521;28;20034;-70
2023/01/17 09:57:14;;;;;;;7.13;1.48;;;;;;;18.99;41.63;98707.00;4991291;28;20034;-72
2023/01/17 10:00:11;;;;;;;3.37;1.47;;;;;;;18.97;41.76;98709.00;4988967;28;20037;-71
2023/01/17 10:02:47;;;;;;;8.25;1.80;;;;;;;18.93;41.92;98713.81;4984713;28;20102;-72
2023/01/17 10:05:18;;;;;;;3.35;1.50;;;;;;;18.92;42.16;98714.00;4990835;28;20031;-72
2023/01/17 10:08:06;;;;;;;9.27;1.85;;;;;;;18.93;42.14;98715.63;4992110;28;20092;-74
2023/01/17 10:10:38;;;;;;;5.20;1.50;;;;;;;18.92;41.91;98714.00;4996642;28;20455;-74
2023/01/17 10:13:36;;;;;;;4.78;1.63;;;;;;;18.90;41.99;98719.47;4992808;28;20092;-72
2023/01/17 10:16:23;;;;;;;3.92;1.40;;;;;;;18.97;41.52;98732.75;4991458;28;20045;-68
2023/01/17 10:19:23;;;;;;;6.82;1.67;;;;;;;18.97;41.67;98728.28;4992470;28;20030;-69
2023/01/17 10:22:09;;;;;;;3.53;1.50;;;;;;;18.95;42.14;98726.84;4981935;28;20097;-69
2023/01/17 10:24:59;;;;;;;6.05;1.50;;;;;;;18.93;42.05;98716.47;4982682;28;20475;-70
2023/01/17 10:27:29;;;;;;;6.32;1.50;;;;;;;18.92;42.28;98717.47;4992953;28;20038;-71
2023/01/17 10:29:54;;;;;;;4.63;1.77;;;;;;;18.89;41.42;98715.19;5001708;28;20161;-71
2023/01/17 10:32:27;;;;;;;4.78;2.20;;;;;;;18.91;41.90;98717.63;4986140;28;20581;-70
2023/01/17 10:35:01;;;;;;;5.53;1.58;;;;;;;18.94;41.71;98718.09;4981861;28;20478;-72
2023/01/17 10:37:39;;;;;;;5.65;1.70;;;;;;;18.96;42.01;98715.25;5062498;27;20463;-71
2023/01/17 10:40:20;;;;;;;3.20;1.20;;;;;;;18.93;42.53;98719.09;5057440;28;20126;-72
2023/01/17 10:43:09;;;;;;;4.50;1.63;;;;;;;18.96;42.43;98723.19;5057150;28;20115;-68
2023/01/17 10:45:51;;;;;;;3.85;1.48;;;;;;;18.93;42.14;98723.53;5056615;28;20016;-71
2023/01/17 10:48:41;;;;;;;5.03;1.50;;;;;;;18.90;41.44;98727.38;5057155;28;20032;-72
2023/01/17 10:51:48;;;;;;;3.92;1.55;;;;;;;18.90;41.40;98737.94;5058054;28;20037;-70
2023/01/17 10:54:48;;;;;;;5.55;1.70;;;;;;;18.84;41.87;98725.47;5037697;28;20098;-70
2023/01/17 10:57:21;;;;;;;4.97;1.55;;;;;;;18.87;41.96;98734.81;5058021;28;20488;-68
2023/01/17 10:59:46;;;;;;;8.05;1.90;;;;;;;18.81;41.80;98723.16;5056602;28;20368;-67
2023/01/17 11:02:24;;;;;;;5.20;1.90;;;;;;;18.82;42.25;98722.97;5057928;28;20037;-69
2023/01/17 11:04:53;;;;;;;3.72;1.50;;;;;;;18.82;42.21;98724.81;5057707;28;20074;-68
2023/01/17 11:07:24;;;;;;;6.18;1.60;;;;;;;18.78;42.09;98723.50;5057668;28;20105;-69
2023/01/17 11:09:52;;;;;;;4.97;1.50;;;;;;;18.77;42.35;98719.22;5057737;28;20111;-69
2023/01/17 11:12:29;;;;;;;4.28;1.58;;;;;;;18.79;42.42;98722.53;5057742;28;20503;-69
2023/01/17 11:15:09;;;;;;;4.25;1.50;;;;;;;18.79;42.50;98715.41;5057470;28;20072;-69
2023/01/17 11:17:37;;;;;;;6.18;1.60;;;;;;;18.77;42.41;98714.78;5057351;28;20132;-68
2023/01/17 11:20:18;;;;;;;3.83;1.50;;;;;;;18.78;42.26;98718.22;5057608;28;20119;-70
2023/01/17 11:23:00;;;;;;;3.40;1.45;;;;;;;18.74;42.46;98704.59;5056998;28;20040;-69
2023/01/17 11:25:26;;;;;;;4.85;1.58;;;;;;;18.77;42.51;98712.16;5057405;28;20108;-67
2023/01/17 11:28:16;;;;;;;3.67;1.35;;;;;;;18.76;42.45;98714.97;5055821;28;20392;-70
2023/01/17 11:30:57;;;;;;;3.65;1.40;;;;;;;18.76;42.55;98713.13;5057415;28;20079;-68
2023/01/17 11:33:32;;;;;;;5.57;1.45;;;;;;;18.76;42.66;98713.13;5057232;28;20043;-66
2023/01/17 11:35:58;;;;;;;3.67;1.33;;;;;;;18.72;42.50;98703.94;5057326;28;20063;-65
2023/01/17 11:38:24;;;;;;;4.97;1.38;;;;;;;18.74;42.39;98701.94;5057753;28;20032;-68
2023/01/17 11:40:52;;;;;;;3.33;1.40;;;;;;;18.79;42.40;98709.31;5056845;28;20396;-71
2023/01/17 11:43:26;;;;;;;4.78;1.42;;;;;;;18.74;42.29;98695.84;5057518;28;20106;-68
2023/01/17 11:46:16;;;;;;;5.15;1.40;;;;;;;18.80;42.10;98703.88;5055606;28;20441;-68
2023/01/17 11:48:46;;;;;;;5.70;1.40;;;;;;;18.76;42.42;98697.31;5044667;28;20071;-69
2023/01/17 11:51:21;;;;;;;3.75;1.30;;;;;;;18.75;42.61;98687.75;5043750;28;20029;-69
2023/01/17 11:53:49;;;;;;;;;;;;;;;18.87;42.45;98692.59;5045037;28;20071;-70
2023/01/17 11:56:23;;;;;;;5.15;1.70;;;;;;;18.82;42.48;98698.41;5044193;28;19960;-72
2023/01/17 11:58:49;;;;;;;;;;;;;;;18.89;42.69;98695.91;5044703;28;20033;-73
2023/01/17 12:01:24;;;;;;;4.82;1.40;;;;;;;18.81;42.71;98679.09;5046271;28;19916;-69
2023/01/17 12:04:08;;;;;;;;;;;;;;;18.96;42.85;98681.78;5044558;28;20040;-69
2023/01/17 12:07:04;;;;;;;6.78;1.77;;;;;;;18.94;43.40;98682.97;5042525;28;19995;-69
2023/01/17 12:09:48;;;;;;;3.67;1.17;;;;;;;18.94;43.74;98685.59;5043254;28;20029;-74
2023/01/17 12:15:50;;;;;;;3.92;1.30;;;;;;;18.91;43.15;98685.97;5043125;28;20495;-72
2023/01/17 12:18:16;;;;;;;3.03;1.30;;;;;;;18.89;43.06;98691.44;5031821;28;20439;-74
2023/01/17 12:21:02;;;;;;;4.60;1.50;;;;;;;18.90;43.20;98692.22;5043738;28;20037;-70
2023/01/17 12:23:51;;;;;;;5.57;2.03;;;;;;;18.92;42.99;98687.63;5042977;28;20266;-69
2023/01/17 12:26:29;;;;;;;3.95;1.40;;;;;;;18.91;42.98;98680.69;5042773;28;20094;-73
2023/01/17 12:29:05;;;;;;;3.65;1.42;;;;;;;18.89;42.73;98683.50;5042309;28;20028;-69
2023/01/17 12:31:35;;;;;;;3.40;1.45;;;;;;;18.85;42.50;98680.41;5042626;28;20032;-69
2023/01/17 12:34:24;;;;;;;5.35;1.30;;;;;;;18.91;42.60;98688.59;5042947;28;20029;-71
2023/01/17 12:36:56;;;;;;;4.30;1.20;;;;;;;18.90;43.03;98679.88;5042627;28;20063;-70
2023/01/17 12:39:29;;;;;;;4.47;1.13;;;;;;;18.93;42.92;98682.16;5042727;28;20037;-73
2023/01/17 12:42:07;;;;;;;4.53;1.15;;;;;;;18.98;42.95;98682.41;5041906;28;20123;-72
2023/01/17 12:44:54;;;;;;;3.90;1.10;;;;;;;18.99;42.83;98685.88;5042470;28;20400;-71
2023/01/17 12:47:20;;;;;;;4.53;1.73;;;;;;;18.95;43.12;98672.22;5042772;28;20074;-72
2023/01/17 12:50:02;;;;;;;3.50;1.20;;;;;;;18.99;43.16;98675.31;5042221;28;20036;-73
2023/01/17 12:52:50;;;;;;;5.68;1.40;;;;;;;18.98;43.38;98668.41;5041455;28;20028;-71
2023/01/17 12:55:21;;;;;;;4.22;1.55;;;;;;;18.99;42.97;98668.22;5040642;28;20041;-71
2023/01/17 12:57:56;;;;;;;5.13;1.40;;;;;;;18.97;42.75;98664.94;5041944;28;20021;-73
2023/01/17 13:00:25;;;;;;;3.40;1.10;;;;;;;19.00;42.15;98674.31;5039366;28;20033;-74
2023/01/17 13:03:21;;;;;;;3.97;1.75;;;;;;;19.04;42.51;98675.56;5041820;28;20029;-73
2023/01/17 13:05:47;;;;;;;4.32;1.17;;;;;;;18.98;43.07;98666.59;5042201;28;20044;-71
2023/01/17 13:08:27;;;;;;;3.25;1.20;;;;;;;18.99;43.18;98667.38;5042532;28;20033;-73
2023/01/17 13:11:09;;;;;;;2.90;1.05;;;;;;;19.02;43.07;98675.75;5041583;28;20043;-69